createdAt,value
2023-01-03T00:00:33.100Z,7.60
2023-01-03T00:02:38.252Z,7.80
2023-01-03T00:04:49.143Z,7.80
2023-01-03T00:06:55.386Z,7.80
2023-01-03T00:09:01.339Z,7.80
2023-01-03T00:11:13.274Z,7.20
2023-01-03T00:13:18.111Z,6.90
2023-01-03T00:15:24.375Z,7.30
2023-01-03T00:17:29.537Z,7.50
2023-01-03T00:19:36.563Z,7.30
2023-01-03T00:21:42.826Z,7.60
2023-01-03T00:23:47.875Z,8.20
2023-01-03T00:25:52.580Z,7.30
2023-01-03T00:27:57.392Z,7.70
2023-01-03T00:30:02.614Z,8.20
2023-01-03T00:32:07.965Z,8.30
2023-01-03T00:34:13.169Z,8.50
2023-01-03T00:36:18.126Z,7.50
2023-01-03T00:38:23.369Z,8.90
2023-01-03T00:40:28.225Z,7.60
2023-01-03T00:42:35.991Z,7.70
2023-01-03T00:44:41.109Z,8.30
2023-01-03T00:46:46.155Z,7.50
2023-01-03T00:48:51.043Z,7.40
2023-01-03T00:50:56.069Z,8.30
2023-01-03T00:53:00.844Z,7.40
2023-01-03T00:55:06.509Z,7.80
2023-01-03T00:57:11.450Z,8.00
2023-01-03T00:59:18.936Z,7.90
2023-01-03T01:01:25.738Z,6.80
2023-01-03T01:03:30.722Z,7.20
2023-01-03T01:05:35.861Z,7.40
2023-01-03T01:07:40.641Z,7.70
2023-01-03T01:09:45.521Z,7.50
2023-01-03T01:11:54.082Z,7.00
2023-01-03T01:14:07.215Z,7.60
2023-01-03T01:16:20.084Z,8.00
2023-01-03T01:18:24.996Z,7.70
2023-01-03T01:20:32.506Z,7.60
2023-01-03T01:22:38.373Z,7.50
2023-01-03T01:24:43.222Z,7.50
2023-01-03T01:26:48.640Z,7.10
2023-01-03T01:28:54.375Z,7.00
2023-01-03T01:31:01.681Z,6.90
2023-01-03T01:33:06.559Z,7.00
2023-01-03T01:35:11.561Z,6.70
2023-01-03T01:37:16.808Z,6.70
2023-01-03T01:39:23.803Z,7.40
2023-01-03T01:41:32.713Z,6.80
2023-01-03T01:43:50.832Z,6.50
2023-01-03T01:45:56.079Z,6.40
2023-01-03T01:48:12.083Z,6.80
2023-01-03T01:50:24.803Z,6.70
2023-01-03T01:52:34.119Z,6.20
2023-01-03T01:54:40.475Z,6.70
2023-01-03T01:56:48.223Z,6.60
2023-01-03T01:58:53.823Z,6.10
2023-01-03T02:00:59.958Z,6.90
2023-01-03T02:03:05.533Z,6.80
2023-01-03T02:05:11.861Z,6.70
2023-01-03T02:07:21.397Z,7.50
2023-01-03T02:09:26.218Z,7.40
2023-01-03T02:11:40.900Z,7.00
2023-01-03T02:13:56.002Z,7.30
2023-01-03T02:16:52.013Z,7.80
2023-01-03T02:19:16.708Z,7.10
2023-01-03T02:21:44.206Z,7.40
2023-01-03T02:24:34.359Z,7.80
2023-01-03T02:26:53.427Z,7.40
2023-01-03T02:29:23.523Z,7.70
2023-01-03T02:31:37.067Z,8.00
2023-01-03T02:33:53.252Z,7.40
2023-01-03T02:36:05.597Z,8.10
2023-01-03T02:38:21.371Z,7.30
2023-01-03T02:40:35.598Z,8.00
2023-01-03T02:42:50.561Z,8.50
2023-01-03T02:45:05.483Z,8.00
2023-01-03T02:47:15.339Z,8.40
2023-01-03T02:49:26.701Z,7.50
2023-01-03T02:51:37.013Z,7.20
2023-01-03T02:53:50.578Z,7.10
2023-01-03T02:56:06.178Z,7.10
2023-01-03T02:58:15.538Z,7.60
2023-01-03T03:00:26.105Z,8.60
2023-01-03T03:02:37.613Z,7.70
2023-01-03T03:04:46.075Z,7.80
2023-01-03T03:07:00.995Z,7.40
2023-01-03T03:09:05.903Z,6.80
2023-01-03T03:11:12.086Z,7.10
2023-01-03T03:13:23.606Z,6.70
2023-01-03T03:15:34.313Z,6.30
2023-01-03T03:17:41.014Z,6.30
2023-01-03T03:19:45.838Z,6.70
2023-01-03T03:21:51.030Z,6.60
2023-01-03T03:24:00.689Z,6.60
2023-01-03T03:26:09.946Z,6.20
2023-01-03T03:28:21.711Z,6.60
2023-01-03T03:30:28.275Z,6.30
2023-01-03T03:32:36.356Z,6.40
2023-01-03T03:34:43.184Z,6.40
2023-01-03T03:36:57.725Z,6.30
2023-01-03T03:39:03.157Z,6.30
2023-01-03T03:41:15.381Z,6.60
2023-01-03T03:43:29.453Z,6.60
2023-01-03T03:45:39.769Z,6.30
2023-01-03T03:47:49.009Z,6.20
2023-01-03T03:49:58.453Z,6.40
2023-01-03T03:52:05.283Z,7.10
2023-01-03T03:54:16.812Z,6.60
2023-01-03T03:56:26.769Z,6.80
2023-01-03T03:58:39.312Z,6.50
2023-01-03T04:00:47.862Z,6.70
2023-01-03T04:02:54.612Z,7.00
2023-01-03T04:05:04.995Z,6.40
2023-01-03T04:07:13.810Z,6.50
2023-01-03T04:09:19.372Z,6.30
2023-01-03T04:11:24.113Z,6.30
2023-01-03T04:13:28.970Z,7.10
2023-01-03T04:15:33.684Z,6.80
2023-01-03T04:17:38.525Z,7.10
2023-01-03T04:19:46.051Z,7.20
2023-01-03T04:21:50.819Z,7.20
2023-01-03T04:23:58.105Z,8.60
2023-01-03T04:26:04.382Z,7.40
2023-01-03T04:28:09.743Z,7.20
2023-01-03T04:30:15.637Z,7.10
2023-01-03T04:32:20.633Z,8.90
2023-01-03T04:34:26.022Z,7.60
2023-01-03T04:36:30.821Z,7.30
2023-01-03T04:38:35.554Z,7.00
2023-01-03T04:40:43.859Z,6.80
2023-01-03T04:42:49.131Z,6.40
2023-01-03T04:44:57.797Z,6.70
2023-01-03T04:47:05.942Z,7.20
2023-01-03T04:49:11.896Z,7.80
2023-01-03T04:51:19.611Z,7.30
2023-01-03T04:53:26.725Z,7.20
2023-01-03T04:55:31.456Z,6.80
2023-01-03T04:57:37.491Z,7.10
2023-01-03T04:59:42.198Z,6.70
2023-01-03T05:01:47.035Z,7.60
2023-01-03T05:03:56.744Z,7.20
2023-01-03T05:06:02.730Z,7.20
2023-01-03T05:08:09.394Z,6.30
2023-01-03T05:10:14.169Z,6.70
2023-01-03T05:12:21.996Z,6.40
2023-01-03T05:14:26.833Z,6.60
2023-01-03T05:16:34.801Z,7.00
2023-01-03T05:18:40.225Z,6.70
2023-01-03T05:20:49.279Z,7.10
2023-01-03T05:22:54.416Z,7.00
2023-01-03T05:24:59.235Z,6.80
2023-01-03T05:27:06.193Z,6.80
2023-01-03T05:29:13.059Z,6.80
2023-01-03T05:31:20.993Z,7.10
2023-01-03T05:33:26.965Z,7.10
2023-01-03T05:35:32.292Z,6.90
2023-01-03T05:37:37.064Z,7.00
2023-01-03T05:39:41.832Z,6.80
2023-01-03T05:41:46.532Z,6.90
2023-01-03T05:43:51.306Z,6.60
2023-01-03T05:45:56.198Z,7.60
2023-01-03T05:48:01.203Z,6.60
2023-01-03T05:50:07.615Z,7.00
2023-01-03T05:52:12.601Z,6.90
2023-01-03T05:54:19.213Z,7.10
2023-01-03T05:56:24.344Z,6.60
2023-01-03T05:58:29.147Z,7.30
2023-01-03T06:00:36.931Z,7.30
2023-01-03T06:02:43.193Z,7.50
2023-01-03T06:04:49.981Z,6.90
2023-01-03T06:06:58.133Z,7.10
2023-01-03T06:09:06.224Z,7.70
2023-01-03T06:11:13.319Z,7.40
2023-01-03T06:13:21.029Z,38.90
2023-01-03T06:15:26.181Z,24.90
2023-01-03T06:17:30.983Z,11.40
2023-01-03T06:19:35.827Z,7.80
2023-01-03T06:21:43.192Z,7.80
2023-01-03T06:23:48.157Z,8.30
2023-01-03T06:25:56.043Z,8.00
2023-01-03T06:28:01.008Z,8.00
2023-01-03T06:30:07.455Z,7.90
2023-01-03T06:32:12.267Z,8.00
2023-01-03T06:34:17.307Z,8.30
2023-01-03T06:36:23.360Z,6.80
2023-01-03T06:38:29.730Z,7.10
2023-01-03T06:40:43.964Z,7.10
2023-01-03T06:42:50.509Z,6.50
2023-01-03T06:44:55.359Z,6.40
2023-01-03T06:47:00.156Z,6.00
2023-01-03T06:49:05.017Z,5.80
2023-01-03T06:51:10.942Z,5.60
2023-01-03T06:53:21.442Z,5.60
2023-01-03T06:55:26.418Z,5.80
2023-01-03T06:57:31.179Z,5.50
2023-01-03T06:59:36.264Z,5.10
2023-01-03T07:01:41.790Z,5.60
2023-01-03T07:03:47.983Z,5.30
2023-01-03T07:05:54.161Z,5.30
2023-01-03T07:08:00.230Z,5.40
2023-01-03T07:10:05.560Z,5.00
2023-01-03T07:12:13.531Z,4.80
2023-01-03T07:14:18.429Z,4.60
2023-01-03T07:16:25.496Z,4.20
2023-01-03T07:18:31.043Z,4.60
2023-01-03T07:20:35.832Z,4.90
2023-01-03T07:22:40.982Z,4.70
2023-01-03T07:24:45.734Z,5.00
2023-01-03T07:26:50.827Z,5.30
2023-01-03T07:28:55.606Z,5.90
2023-01-03T07:31:04.299Z,6.60
2023-01-03T07:33:10.243Z,7.00
2023-01-03T07:35:15.391Z,7.70
2023-01-03T07:37:21.422Z,8.00
2023-01-03T07:39:26.383Z,7.30
2023-01-03T07:41:32.091Z,8.20
2023-01-03T07:43:39.367Z,11.00
2023-01-03T07:45:45.167Z,42.10
2023-01-03T07:47:50.108Z,16.60
2023-01-03T07:49:58.032Z,18.80
2023-01-03T07:52:02.984Z,17.70
2023-01-03T07:54:08.125Z,8.20
2023-01-03T07:56:14.778Z,8.30
2023-01-03T07:58:19.766Z,7.10
2023-01-03T08:00:24.719Z,6.80
2023-01-03T08:02:32.456Z,6.20
2023-01-03T08:04:37.501Z,6.60
2023-01-03T08:06:42.374Z,5.40
2023-01-03T08:08:47.724Z,5.20
2023-01-03T08:10:52.725Z,5.70
2023-01-03T08:12:57.508Z,5.80
2023-01-03T08:15:02.243Z,5.80
2023-01-03T08:17:06.962Z,5.20
2023-01-03T08:19:11.723Z,5.50
2023-01-03T08:21:19.356Z,5.70
2023-01-03T08:23:24.892Z,5.90
2023-01-03T08:25:30.388Z,5.90
2023-01-03T08:27:35.191Z,6.00
2023-01-03T08:29:41.267Z,5.90
2023-01-03T08:31:51.382Z,6.10
2023-01-03T08:34:00.935Z,6.50
2023-01-03T08:36:08.740Z,6.20
2023-01-03T08:38:17.771Z,7.10
2023-01-03T08:40:23.051Z,7.80
2023-01-03T08:42:27.982Z,6.80
2023-01-03T08:44:35.879Z,6.40
2023-01-03T08:46:45.604Z,6.80
2023-01-03T08:48:50.608Z,7.50
2023-01-03T08:50:56.809Z,6.70
2023-01-03T08:53:01.659Z,7.30
2023-01-03T08:55:08.437Z,7.40
2023-01-03T08:57:13.355Z,8.20
2023-01-03T08:59:18.164Z,8.00
2023-01-03T09:01:24.292Z,7.90
2023-01-03T09:03:29.337Z,8.00
2023-01-03T09:05:34.184Z,10.10
2023-01-03T09:07:39.004Z,9.70
2023-01-03T09:09:43.744Z,9.90
2023-01-03T09:11:48.525Z,8.60
2023-01-03T09:13:54.813Z,8.80
2023-01-03T09:16:03.196Z,8.50
2023-01-03T09:18:08.103Z,8.30
2023-01-03T09:20:14.906Z,8.00
2023-01-03T09:22:19.955Z,7.50
2023-01-03T09:24:24.628Z,7.80
2023-01-03T09:26:29.394Z,6.70
2023-01-03T09:28:34.750Z,6.60
2023-01-03T09:30:39.482Z,6.10
2023-01-03T09:32:44.287Z,5.90
2023-01-03T09:34:49.099Z,5.80
2023-01-03T09:36:53.975Z,5.50
2023-01-03T09:38:58.666Z,5.80
2023-01-03T09:41:08.141Z,5.50
2023-01-03T09:43:23.148Z,5.70
2023-01-03T09:45:36.637Z,5.40
2023-01-03T09:47:42.067Z,5.20
2023-01-03T09:50:11.574Z,5.40
2023-01-03T09:52:21.296Z,5.60
2023-01-03T09:54:31.231Z,5.50
2023-01-03T09:56:35.889Z,5.30
2023-01-03T09:58:42.403Z,5.70
2023-01-03T10:00:54.091Z,5.10
2023-01-03T10:03:16.719Z,4.70
2023-01-03T10:05:37.120Z,4.50
2023-01-03T10:08:23.369Z,5.20
2023-01-03T10:10:35.925Z,4.90
2023-01-03T10:12:49.278Z,4.70
2023-01-03T10:15:11.200Z,4.60
2023-01-03T10:17:24.062Z,4.60
2023-01-03T10:19:48.074Z,4.50
2023-01-03T10:22:03.663Z,4.20
2023-01-03T10:24:17.903Z,4.20
2023-01-03T10:26:29.197Z,3.60
2023-01-03T10:28:43.691Z,3.70
2023-01-03T10:31:15.761Z,4.20
2023-01-03T10:33:31.946Z,4.10
2023-01-03T10:35:42.109Z,4.30
2023-01-03T10:37:47.279Z,4.70
2023-01-03T10:40:04.004Z,4.00
2023-01-03T10:42:08.776Z,3.90
2023-01-03T10:44:24.643Z,3.60
2023-01-03T10:46:30.228Z,4.00
2023-01-03T10:49:08.369Z,3.50
2023-01-03T10:51:21.508Z,3.90
2023-01-03T10:53:26.397Z,3.70
2023-01-03T10:55:35.087Z,3.40
2023-01-03T10:57:42.855Z,3.90
2023-01-03T10:59:50.356Z,3.80
2023-01-03T11:02:14.754Z,3.70
2023-01-03T11:04:19.608Z,3.00
2023-01-03T11:06:27.378Z,4.30
2023-01-03T11:08:43.760Z,3.50
2023-01-03T11:10:55.415Z,3.50
2023-01-03T11:13:00.329Z,3.10
2023-01-03T11:15:14.826Z,3.10
2023-01-03T11:17:20.791Z,3.30
2023-01-03T11:19:28.897Z,3.30
2023-01-03T11:21:42.015Z,3.20
2023-01-03T11:23:57.822Z,3.20
2023-01-03T11:26:13.963Z,4.00
2023-01-03T11:28:42.592Z,3.30
2023-01-03T11:30:59.496Z,3.60
2023-01-03T11:33:27.271Z,3.30
2023-01-03T11:35:59.725Z,3.30
2023-01-03T11:38:16.082Z,3.20
2023-01-03T11:40:32.140Z,3.20
2023-01-03T11:42:54.125Z,3.50
2023-01-03T11:45:19.227Z,2.90
2023-01-03T11:47:37.004Z,2.40
2023-01-03T11:49:57.117Z,2.30
2023-01-03T11:52:18.072Z,2.30
2023-01-03T11:54:52.964Z,2.80
2023-01-03T11:57:06.378Z,2.40
2023-01-03T11:59:36.072Z,2.40
2023-01-03T12:01:53.102Z,2.30
2023-01-03T12:04:16.784Z,2.60
2023-01-03T12:06:29.104Z,3.10
2023-01-03T12:08:48.892Z,4.10
2023-01-03T12:11:01.898Z,3.00
2023-01-03T12:13:17.123Z,3.10
2023-01-03T12:15:24.928Z,2.80
2023-01-03T12:17:45.970Z,3.00
2023-01-03T12:19:57.297Z,2.90
2023-01-03T12:22:11.429Z,2.90
2023-01-03T12:24:21.294Z,3.30
2023-01-03T12:26:29.729Z,2.50
2023-01-03T12:28:39.601Z,3.00
2023-01-03T12:30:50.892Z,3.20
2023-01-03T12:33:02.252Z,2.90
2023-01-03T12:35:21.701Z,3.00
2023-01-03T12:37:30.476Z,3.30
2023-01-03T12:39:42.541Z,2.70
2023-01-03T12:41:55.972Z,3.20
2023-01-03T12:44:08.390Z,3.00
2023-01-03T12:46:18.055Z,3.20
2023-01-03T12:48:40.281Z,3.00
2023-01-03T12:50:48.002Z,2.90
2023-01-03T12:52:58.467Z,2.70
2023-01-03T12:55:08.104Z,2.80
2023-01-03T12:57:26.843Z,3.10
2023-01-03T12:59:57.832Z,2.70
2023-01-03T13:02:15.591Z,2.80
2023-01-03T13:04:25.167Z,2.50
2023-01-03T13:06:34.404Z,2.60
2023-01-03T13:08:44.698Z,2.20
2023-01-03T13:10:53.525Z,3.10
2023-01-03T13:13:00.513Z,2.80
2023-01-03T13:15:25.574Z,3.00
2023-01-03T13:17:42.428Z,2.50
2023-01-03T13:20:19.133Z,3.10
2023-01-03T13:22:47.738Z,3.00
2023-01-03T13:24:52.791Z,2.90
2023-01-03T13:27:35.982Z,2.90
2023-01-03T13:29:53.931Z,2.70
2023-01-03T13:32:17.978Z,2.40
2023-01-03T13:34:36.537Z,3.10
2023-01-03T13:37:16.852Z,2.80
2023-01-03T13:39:39.704Z,2.80
2023-01-03T13:41:44.366Z,2.70
2023-01-03T13:43:52.465Z,2.60
2023-01-03T13:45:59.901Z,3.30
2023-01-03T13:48:19.763Z,2.40
2023-01-03T13:50:28.176Z,2.50
2023-01-03T13:52:55.372Z,3.10
2023-01-03T13:55:00.489Z,3.40
2023-01-03T13:57:27.972Z,2.90
2023-01-03T13:59:38.523Z,2.30
2023-01-03T14:01:58.006Z,2.70
2023-01-03T14:04:24.463Z,2.70
2023-01-03T14:06:45.780Z,2.70
2023-01-03T14:09:36.170Z,2.90
2023-01-03T14:12:03.532Z,2.60
2023-01-03T14:14:13.434Z,3.40
2023-01-03T14:16:25.599Z,7.30
2023-01-03T14:18:33.235Z,4.20
2023-01-03T14:20:39.554Z,3.70
2023-01-03T14:22:47.421Z,4.10
2023-01-03T14:24:54.167Z,4.00
2023-01-03T14:27:08.908Z,3.30
2023-01-03T14:29:21.145Z,3.10
2023-01-03T14:31:28.776Z,3.00
2023-01-03T14:33:40.158Z,3.50
2023-01-03T14:35:47.331Z,4.00
2023-01-03T14:37:52.105Z,3.70
2023-01-03T14:39:58.781Z,6.10
2023-01-03T14:42:05.400Z,4.40
2023-01-03T14:44:17.429Z,4.00
2023-01-03T14:46:22.277Z,3.70
2023-01-03T14:48:27.199Z,6.50
2023-01-03T14:50:33.670Z,3.60
2023-01-03T14:52:41.841Z,4.10
2023-01-03T14:54:50.356Z,3.70
2023-01-03T14:56:56.546Z,3.60
2023-01-03T14:59:01.815Z,3.60
2023-01-03T15:01:10.939Z,3.60
2023-01-03T15:03:17.472Z,3.20
2023-01-03T15:05:31.527Z,3.50
2023-01-03T15:07:40.728Z,3.50
2023-01-03T15:09:45.542Z,3.10
2023-01-03T15:11:54.193Z,3.60
2023-01-03T15:14:02.791Z,3.50
2023-01-03T15:16:21.534Z,3.50
2023-01-03T15:18:29.875Z,3.80
2023-01-03T15:20:39.028Z,3.50
2023-01-03T15:22:44.436Z,4.30
2023-01-03T15:24:54.773Z,4.50
2023-01-03T15:26:59.631Z,4.10
2023-01-03T15:29:14.011Z,3.40
2023-01-03T15:31:30.532Z,3.80
2023-01-03T15:33:35.260Z,4.10
2023-01-03T15:35:42.847Z,4.10
2023-01-03T15:37:51.563Z,3.80
2023-01-03T15:40:02.651Z,3.40
2023-01-03T15:42:43.007Z,3.90
2023-01-03T15:44:40.514Z,3.60
2023-01-03T15:46:46.559Z,4.00
2023-01-03T15:48:55.588Z,4.00
2023-01-03T15:51:01.110Z,4.20
2023-01-03T15:53:05.888Z,3.60
2023-01-03T15:55:13.785Z,5.90
2023-01-03T15:57:21.655Z,4.90
2023-01-03T15:59:28.808Z,4.60
2023-01-03T16:01:33.770Z,4.50
2023-01-03T16:03:38.961Z,4.50
2023-01-03T16:05:44.283Z,5.00
2023-01-03T16:07:49.014Z,4.60
2023-01-03T16:09:53.844Z,4.30
2023-01-03T16:12:00.213Z,4.60
2023-01-03T16:14:07.553Z,4.90
2023-01-03T16:16:15.891Z,5.30
2023-01-03T16:18:25.060Z,5.40
2023-01-03T16:20:30.025Z,5.90
2023-01-03T16:22:36.232Z,5.30
2023-01-03T16:24:41.764Z,5.20
2023-01-03T16:26:47.630Z,5.10
2023-01-03T16:28:52.327Z,5.90
2023-01-03T16:31:12.184Z,5.40
2023-01-03T16:33:20.765Z,5.60
2023-01-03T16:35:27.601Z,5.30
2023-01-03T16:37:32.471Z,4.90
2023-01-03T16:39:41.049Z,5.60
2023-01-03T16:41:50.060Z,5.90
2023-01-03T16:43:54.886Z,5.20
2023-01-03T16:46:00.959Z,5.50
2023-01-03T16:48:06.912Z,4.90
2023-01-03T16:50:17.278Z,5.70
2023-01-03T16:52:24.988Z,5.60
2023-01-03T16:54:30.122Z,5.90
2023-01-03T16:56:34.968Z,5.50
2023-01-03T16:58:39.844Z,6.20
2023-01-03T17:00:44.589Z,6.30
2023-01-03T17:02:49.611Z,6.40
2023-01-03T17:04:54.716Z,6.50
2023-01-03T17:06:59.593Z,6.00
2023-01-03T17:09:09.073Z,6.10
2023-01-03T17:11:17.193Z,6.60
2023-01-03T17:13:30.056Z,6.70
2023-01-03T17:15:34.997Z,7.60
2023-01-03T17:17:39.934Z,6.60
2023-01-03T17:22:15.405Z,6.80
2023-01-03T17:24:23.618Z,6.50
2023-01-03T17:26:30.698Z,6.80
2023-01-03T17:28:36.532Z,6.50
2023-01-03T17:30:43.265Z,6.60
2023-01-03T17:32:49.418Z,7.00
2023-01-03T17:34:54.406Z,7.40
2023-01-03T17:37:00.873Z,6.70
2023-01-03T17:39:07.016Z,6.60
2023-01-03T17:41:17.921Z,6.80
2023-01-03T17:43:30.873Z,7.10
2023-01-03T17:45:36.457Z,7.10
2023-01-03T17:47:43.980Z,7.10
2023-01-03T17:49:49.007Z,7.10
2023-01-03T17:52:00.676Z,7.10
2023-01-03T17:54:06.236Z,7.50
2023-01-03T17:56:18.463Z,6.90
2023-01-03T17:58:29.375Z,7.50
2023-01-03T18:00:35.480Z,7.90
2023-01-03T18:02:42.965Z,8.20
2023-01-03T18:05:15.229Z,9.10
2023-01-03T18:07:20.942Z,7.80
2023-01-03T18:09:32.119Z,8.60
2023-01-03T18:11:37.487Z,8.30
2023-01-03T18:13:42.488Z,8.20
2023-01-03T18:15:47.623Z,8.00
2023-01-03T18:17:52.613Z,7.40
2023-01-03T18:19:58.934Z,7.60
2023-01-03T18:22:04.366Z,7.50
2023-01-03T18:24:19.643Z,7.20
2023-01-03T18:26:32.188Z,8.10
2023-01-03T18:28:40.587Z,7.50
2023-01-03T18:30:47.100Z,8.00
2023-01-03T18:32:52.585Z,8.10
2023-01-03T18:34:59.891Z,7.60
2023-01-03T18:37:05.412Z,8.60
2023-01-03T18:39:15.552Z,8.30
2023-01-03T18:41:26.176Z,8.00
2023-01-03T18:43:31.506Z,8.10
2023-01-03T18:45:36.965Z,8.30
2023-01-03T18:47:42.568Z,7.60
2023-01-03T18:49:50.006Z,7.70
2023-01-03T18:51:54.932Z,8.50
2023-01-03T18:54:00.848Z,10.50
2023-01-03T18:56:06.528Z,8.00
2023-01-03T18:58:26.215Z,8.20
2023-01-03T19:00:31.154Z,7.80
2023-01-03T19:02:39.332Z,8.00
2023-01-03T19:04:50.795Z,8.30
2023-01-03T19:06:56.346Z,8.20
2023-01-03T19:09:04.183Z,7.60
2023-01-03T19:11:18.418Z,8.10
2023-01-03T19:13:28.868Z,8.10
2023-01-03T19:15:33.739Z,8.80
2023-01-03T19:17:38.567Z,8.30
2023-01-03T19:19:43.801Z,8.60
2023-01-03T19:21:48.851Z,7.90
2023-01-03T19:23:59.761Z,7.50
2023-01-03T19:26:05.145Z,7.80
2023-01-03T19:28:13.870Z,7.80
2023-01-03T19:30:22.422Z,8.00
2023-01-03T19:32:31.384Z,8.10
2023-01-03T19:34:40.545Z,7.90
2023-01-03T19:36:46.109Z,7.60
2023-01-03T19:38:51.023Z,7.50
2023-01-03T19:40:56.736Z,7.80
2023-01-03T19:43:02.361Z,7.30
2023-01-03T19:45:18.153Z,7.60
2023-01-03T19:47:23.908Z,7.80
2023-01-03T19:49:31.193Z,8.20
2023-01-03T19:51:39.124Z,7.50
2023-01-03T19:53:44.562Z,8.00
2023-01-03T19:55:54.651Z,8.00
2023-01-03T19:58:01.792Z,7.90
2023-01-03T20:00:16.607Z,7.50
2023-01-03T20:02:39.827Z,7.60
2023-01-03T20:04:49.065Z,7.60
2023-01-03T20:06:54.182Z,7.90
2023-01-03T20:09:03.069Z,7.60
2023-01-03T20:11:14.399Z,7.50
2023-01-03T20:13:22.341Z,8.00
2023-01-03T20:15:29.450Z,8.20
2023-01-03T20:17:35.156Z,8.10
2023-01-03T20:19:40.994Z,8.00
2023-01-03T20:21:51.096Z,7.30
2023-01-03T20:24:00.414Z,8.00
2023-01-03T20:26:20.717Z,8.10
2023-01-03T20:28:27.113Z,7.90
2023-01-03T20:30:34.619Z,8.40
2023-01-03T20:32:40.413Z,7.10
2023-01-03T20:34:51.333Z,7.90
2023-01-03T20:37:00.348Z,8.10
2023-01-03T20:39:24.326Z,8.20
2023-01-03T20:41:30.631Z,7.90
2023-01-03T20:43:36.348Z,8.50
2023-01-03T20:45:43.072Z,8.60
2023-01-03T20:47:49.774Z,8.10
2023-01-03T20:50:02.357Z,8.40
2023-01-03T20:52:10.974Z,7.80
2023-01-03T20:54:16.609Z,9.80
2023-01-03T20:56:22.657Z,8.30
2023-01-03T20:58:28.431Z,8.30
2023-01-03T21:00:36.060Z,9.00
2023-01-03T21:02:41.555Z,8.50
2023-01-03T21:04:49.678Z,8.50
2023-01-03T21:06:56.310Z,8.20
2023-01-03T21:09:13.573Z,9.40
2023-01-03T21:11:18.783Z,9.20
2023-01-03T21:13:25.556Z,8.20
2023-01-03T21:15:32.339Z,8.30
2023-01-03T21:17:48.788Z,8.70
2023-01-03T21:20:00.335Z,8.80
2023-01-03T21:22:20.657Z,8.10
2023-01-03T21:24:25.848Z,8.30
2023-01-03T21:26:34.329Z,8.20
2023-01-03T21:28:42.507Z,8.40
2023-01-03T21:30:49.930Z,8.30
2023-01-03T21:32:57.960Z,8.50
2023-01-03T21:35:04.285Z,9.00
2023-01-03T21:37:11.584Z,8.70
2023-01-03T21:39:18.984Z,9.10
2023-01-03T21:41:27.769Z,9.00
2023-01-03T21:43:33.288Z,9.70
2023-01-03T21:45:47.535Z,9.20
2023-01-03T21:47:56.327Z,8.70
2023-01-03T21:50:10.296Z,9.30
2023-01-03T21:52:15.189Z,9.60
2023-01-03T21:54:21.191Z,9.60
2023-01-03T21:56:27.222Z,9.30
2023-01-03T21:58:32.718Z,9.10
2023-01-03T22:00:39.153Z,10.00
2023-01-03T22:02:47.708Z,9.30
2023-01-03T22:04:52.579Z,9.10
2023-01-03T22:06:59.986Z,9.50
2023-01-03T22:09:05.263Z,8.80
2023-01-03T22:11:12.175Z,9.30
2023-01-03T22:13:17.028Z,8.70
2023-01-03T22:15:22.623Z,9.30
2023-01-03T22:17:27.542Z,9.20
2023-01-03T22:19:32.304Z,9.20
2023-01-03T22:21:37.728Z,9.60
2023-01-03T22:23:45.134Z,9.60
2023-01-03T22:25:50.912Z,9.60
2023-01-03T22:27:56.596Z,9.00
2023-01-03T22:30:01.388Z,9.20
2023-01-03T22:32:06.585Z,9.80
2023-01-03T22:34:14.808Z,9.50
2023-01-03T22:36:19.835Z,9.60
2023-01-03T22:38:25.842Z,9.00
2023-01-03T22:40:32.119Z,8.90
2023-01-03T22:42:36.862Z,9.10
2023-01-03T22:44:43.941Z,9.90
2023-01-03T22:46:48.861Z,9.60
2023-01-03T22:48:55.230Z,9.30
2023-01-03T22:51:03.987Z,9.20
2023-01-03T22:53:08.873Z,9.60
2023-01-03T22:55:13.618Z,9.50
2023-01-03T22:57:18.490Z,10.10
2023-01-03T22:59:24.410Z,9.80
2023-01-03T23:01:29.332Z,9.70
2023-01-03T23:03:34.856Z,9.70
2023-01-03T23:05:43.266Z,9.60
2023-01-03T23:07:48.116Z,9.60
2023-01-03T23:09:52.867Z,9.70
2023-01-03T23:11:58.731Z,8.90
2023-01-03T23:14:05.909Z,9.50
2023-01-03T23:16:10.891Z,9.50
2023-01-03T23:18:18.616Z,9.30
2023-01-03T23:20:28.257Z,9.40
2023-01-03T23:22:33.070Z,9.70
2023-01-03T23:24:37.787Z,9.40
2023-01-03T23:26:42.795Z,9.60
2023-01-03T23:28:47.747Z,9.70
2023-01-03T23:30:55.628Z,8.90
2023-01-03T23:33:00.409Z,9.00
2023-01-03T23:35:05.817Z,9.80
2023-01-03T23:37:11.542Z,9.60
2023-01-03T23:39:19.081Z,9.60
2023-01-03T23:41:25.228Z,9.00
2023-01-03T23:43:30.266Z,9.20
2023-01-03T23:45:35.067Z,9.50
2023-01-03T23:47:39.966Z,9.30
2023-01-03T23:49:45.404Z,9.50
2023-01-03T23:51:53.544Z,8.90
2023-01-03T23:53:59.255Z,9.80
2023-01-03T23:56:08.628Z,9.50
2023-01-03T23:58:13.444Z,8.50
